Time;durP1;ratioP1;P1;durP2;ratioP2;P2;SDS_P1;SDS_P2;PMS_P1;PMS_P2;Temp;Humidity;BMP_temperature;BMP_pressure;BME280_temperature;BME280_humidity;BME280_pressure;Samples;Min_cycle;Max_cycle;Signal;HPM_P1;HPM_P2
2022/05/30 00:00:46;;;;;;;19.03;17.80;;;;;;;;;;5094695;28;20450;-81
2022/05/30 00:03:13;;;;;;;18.77;17.77;;;;;;;;;;5093947;28;20957;-82
2022/05/30 00:05:44;;;;;;;18.50;17.60;;;;;;;;;;5095027;28;20453;-82
2022/05/30 00:08:11;;;;;;;18.43;17.43;;;;;;;;;;5094557;28;20780;-81
2022/05/30 00:10:40;;;;;;;18.00;17.10;;;;;;;;;;5094890;28;20930;-81
2022/05/30 00:13:07;;;;;;;18.97;17.70;;;;;;;;;;5094437;28;20890;-82
2022/05/30 00:15:36;;;;;;;18.90;17.90;;;;;;;;;;5076438;28;20428;-81
2022/05/30 00:18:04;;;;;;;19.57;18.37;;;;;;;;;;5094626;28;20445;-81
2022/05/30 00:20:32;;;;;;;18.93;17.83;;;;;;;;;;5094242;28;20481;-82
2022/05/30 00:22:59;;;;;;;18.63;17.33;;;;;;;;;;5094365;28;20437;-81
2022/05/30 00:25:26;;;;;;;18.60;17.67;;;;;;;;;;5094532;28;20435;-82
2022/05/30 00:27:55;;;;;;;18.40;17.50;;;;;;;;;;5094501;28;20763;-81
2022/05/30 00:30:22;;;;;;;19.80;18.40;;;;;;;;;;5094374;28;20441;-81
2022/05/30 00:32:50;;;;;;;18.60;17.40;;;;;;;;;;5093911;28;20469;-82
2022/05/30 00:35:17;;;;;;;19.10;18.00;;;;;;;;;;5094190;28;20812;-81
2022/05/30 00:37:44;;;;;;;19.53;18.50;;;;;;;;;;5094189;28;20408;-82
2022/05/30 00:40:12;;;;;;;18.47;17.47;;;;;;;;;;5094061;28;20771;-82
2022/05/30 00:42:39;;;;;;;19.90;18.60;;;;;;;;;;5094177;28;20437;-81
2022/05/30 00:45:10;;;;;;;19.17;18.13;;;;;;;;;;5093953;28;20446;-81
2022/05/30 00:47:38;;;;;;;18.97;18.00;;;;;;;;;;5093897;28;20413;-81
2022/05/30 00:50:06;;;;;;;19.23;18.13;;;;;;;;;;5093768;28;20423;-81
2022/05/30 00:52:38;;;;;;;19.40;18.20;;;;;;;;;;5094076;28;20408;-81
2022/05/30 00:55:07;;;;;;;19.47;18.27;;;;;;;;;;5093897;28;20489;-82
2022/05/30 00:57:35;;;;;;;19.37;18.37;;;;;;;;;;5093678;28;20441;-81
2022/05/30 01:00:05;;;;;;;19.20;18.20;;;;;;;;;;5093546;28;20800;-82
2022/05/30 01:02:35;;;;;;;19.87;18.77;;;;;;;;;;5093671;28;20740;-82
2022/05/30 01:07:49;;;;;;;19.87;18.77;;;;;;;;;;5093701;28;20442;-82
2022/05/30 01:10:18;;;;;;;19.47;18.40;;;;;;;;;;5093452;28;20449;-81
2022/05/30 01:12:49;;;;;;;19.67;18.37;;;;;;;;;;5093667;28;20453;-82
2022/05/30 01:15:17;;;;;;;19.07;18.07;;;;;;;;;;5092419;28;20499;-81
2022/05/30 01:18:00;;;;;;;19.37;18.37;;;;;;;;;;5093685;28;20431;-82
2022/05/30 01:20:32;;;;;;;19.03;17.73;;;;;;;;;;5093218;28;20560;-81
2022/05/30 01:23:15;;;;;;;18.90;17.93;;;;;;;;;;5093705;28;20809;-81
2022/05/30 01:25:53;;;;;;;19.20;18.17;;;;;;;;;;5093568;28;20426;-82
2022/05/30 01:28:41;;;;;;;19.00;17.90;;;;;;;;;;5093398;28;20445;-81
2022/05/30 01:31:09;;;;;;;19.97;18.57;;;;;;;;;;5093403;28;20434;-82
2022/05/30 01:33:36;;;;;;;19.00;18.00;;;;;;;;;;5092924;28;20770;-82
2022/05/30 01:36:04;;;;;;;18.73;17.63;;;;;;;;;;5093411;28;20457;-83
2022/05/30 01:38:31;;;;;;;18.63;17.73;;;;;;;;;;5093141;28;20405;-82
2022/05/30 01:41:00;;;;;;;19.40;18.40;;;;;;;;;;5093325;28;20441;-82
2022/05/30 01:43:28;;;;;;;18.27;17.40;;;;;;;;;;5093229;28;20448;-82
2022/05/30 01:45:56;;;;;;;20.10;18.37;;;;;;;;;;5093255;28;20419;-82
2022/05/30 01:48:24;;;;;;;19.10;17.63;;;;;;;;;;5093131;28;20830;-82
2022/05/30 01:50:55;;;;;;;19.30;18.20;;;;;;;;;;5092964;28;20191;-81
2022/05/30 01:53:22;;;;;;;19.90;18.70;;;;;;;;;;5092838;28;20876;-82
2022/05/30 01:55:49;;;;;;;19.00;18.00;;;;;;;;;;5092989;28;20473;-82
2022/05/30 01:58:17;;;;;;;18.77;17.73;;;;;;;;;;5093015;28;20743;-81
2022/05/30 02:00:44;;;;;;;19.42;18.33;;;;;;;;;;5092869;28;20408;-82
2022/05/30 02:03:13;;;;;;;18.97;17.87;;;;;;;;;;5092740;28;20195;-82
2022/05/30 02:05:40;;;;;;;19.43;18.53;;;;;;;;;;5092787;28;20444;-82
2022/05/30 02:08:08;;;;;;;19.42;18.10;;;;;;;;;;5092693;28;20434;-82
2022/05/30 02:10:36;;;;;;;19.40;18.33;;;;;;;;;;5092994;28;20609;-81
2022/05/30 02:13:06;;;;;;;18.60;17.70;;;;;;;;;;5092624;28;20882;-82
2022/05/30 02:17:00;;;;;;;18.40;17.50;;;;;;;;;;5092952;28;20483;-82
2022/05/30 02:18:22;;;;;;;19.00;18.10;;;;;;;;;;5092482;28;20470;-81
2022/05/30 02:20:50;;;;;;;18.70;17.60;;;;;;;;;;5092343;28;20456;-82
2022/05/30 02:23:18;;;;;;;19.00;18.00;;;;;;;;;;5092594;28;20199;-82
2022/05/30 02:25:45;;;;;;;18.53;17.63;;;;;;;;;;5092742;28;20606;-82
2022/05/30 02:28:12;;;;;;;19.30;18.13;;;;;;;;;;5096675;28;20440;-82
2022/05/30 02:30:40;;;;;;;18.90;17.75;;;;;;;;;;5096770;28;20449;-82
2022/05/30 02:38:39;;;;;;;18.13;17.23;;;;;;;;;;5096673;28;20479;-82
2022/05/30 02:41:06;;;;;;;18.47;17.57;;;;;;;;;;5096668;28;20444;-82
2022/05/30 02:43:33;;;;;;;18.73;17.65;;;;;;;;;;5096591;28;20437;-81
2022/05/30 02:46:00;;;;;;;18.97;17.97;;;;;;;;;;5096108;28;20286;-82
2022/05/30 02:48:28;;;;;;;18.60;17.70;;;;;;;;;;5096173;28;20799;-82
2022/05/30 02:50:57;;;;;;;19.87;18.67;;;;;;;;;;5096070;28;20995;-82
2022/05/30 02:53:24;;;;;;;20.23;18.87;;;;;;;;;;5096387;28;20438;-81
2022/05/30 02:55:51;;;;;;;19.27;18.17;;;;;;;;;;5096294;28;20480;-82
2022/05/30 02:58:19;;;;;;;18.57;17.60;;;;;;;;;;5096320;28;20448;-81
2022/05/30 03:00:46;;;;;;;19.00;18.00;;;;;;;;;;5096336;28;20420;-82
2022/05/30 03:03:13;;;;;;;20.40;19.07;;;;;;;;;;5096159;28;20656;-83
2022/05/30 03:05:41;;;;;;;19.03;18.03;;;;;;;;;;5095987;28;20412;-80
2022/05/30 03:08:11;;;;;;;19.73;18.55;;;;;;;;;;5095836;28;20408;-82
2022/05/30 03:10:38;;;;;;;19.37;17.87;;;;;;;;;;5096071;28;20633;-82
2022/05/30 03:13:06;;;;;;;19.10;17.90;;;;;;;;;;5095790;28;20449;-82
2022/05/30 03:15:34;;;;;;;19.20;18.20;;;;;;;;;;5096040;28;20477;-82
2022/05/30 03:18:01;;;;;;;19.67;18.67;;;;;;;;;;5095814;28;20437;-82
2022/05/30 03:20:29;;;;;;;19.00;18.00;;;;;;;;;;5095472;28;20488;-82
2022/05/30 03:22:57;;;;;;;19.47;18.27;;;;;;;;;;5095924;28;20837;-82
2022/05/30 03:25:26;;;;;;;19.90;18.80;;;;;;;;;;5095580;28;20467;-82
2022/05/30 03:27:53;;;;;;;19.40;18.00;;;;;;;;;;5095772;28;20437;-82
2022/05/30 03:30:21;;;;;;;20.10;18.20;;;;;;;;;;5095920;28;20771;-82
2022/05/30 03:32:48;;;;;;;19.37;18.27;;;;;;;;;;5095494;28;20404;-82
2022/05/30 03:35:16;;;;;;;19.00;18.00;;;;;;;;;;5095708;28;20488;-82
2022/05/30 03:37:45;;;;;;;19.60;18.50;;;;;;;;;;5094527;28;20440;-82
2022/05/30 03:40:14;;;;;;;20.57;19.23;;;;;;;;;;5095370;28;20460;-83
2022/05/30 03:42:43;;;;;;;19.70;18.60;;;;;;;;;;5095085;28;20409;-82
2022/05/30 03:45:13;;;;;;;19.70;18.60;;;;;;;;;;5095622;28;20416;-82
2022/05/30 03:47:40;;;;;;;18.90;17.90;;;;;;;;;;5095079;28;20980;-83
2022/05/30 03:50:09;;;;;;;20.77;19.37;;;;;;;;;;5095351;28;20436;-82
2022/05/30 03:52:36;;;;;;;19.97;18.77;;;;;;;;;;5095144;28;20915;-82
2022/05/30 03:55:04;;;;;;;19.23;18.23;;;;;;;;;;5095166;28;20953;-81
2022/05/30 03:57:32;;;;;;;20.77;19.37;;;;;;;;;;5095244;28;20823;-82
2022/05/30 04:00:01;;;;;;;20.10;18.50;;;;;;;;;;5094795;28;20415;-82
2022/05/30 04:02:29;;;;;;;18.87;17.87;;;;;;;;;;5094919;28;20415;-82
2022/05/30 04:04:56;;;;;;;19.93;18.73;;;;;;;;;;5094814;28;20791;-82
2022/05/30 04:07:24;;;;;;;19.73;18.63;;;;;;;;;;5095108;28;20432;-82
2022/05/30 04:09:51;;;;;;;19.57;18.47;;;;;;;;;;5094595;28;20408;-81
2022/05/30 04:12:21;;;;;;;19.70;18.70;;;;;;;;;;5094908;28;20440;-82
2022/05/30 04:14:54;;;;;;;19.87;18.77;;;;;;;;;;5094404;28;20512;-82
2022/05/30 04:17:23;;;;;;;20.80;19.20;;;;;;;;;;5094409;28;20477;-82
2022/05/30 04:19:50;;;;;;;20.57;19.40;;;;;;;;;;5094387;28;20473;-82
2022/05/30 04:22:18;;;;;;;20.10;18.80;;;;;;;;;;5094581;28;20457;-81
2022/05/30 04:24:45;;;;;;;20.20;19.07;;;;;;;;;;5094633;28;20437;-82
2022/05/30 04:27:13;;;;;;;20.87;19.50;;;;;;;;;;5094712;28;20430;-82
2022/05/30 04:29:40;;;;;;;20.57;19.37;;;;;;;;;;5076075;28;20823;-82
2022/05/30 04:32:08;;;;;;;20.77;19.57;;;;;;;;;;5094506;28;20446;-82
2022/05/30 04:34:37;;;;;;;21.20;20.00;;;;;;;;;;5093970;28;20433;-82
2022/05/30 04:37:05;;;;;;;21.03;19.73;;;;;;;;;;5094751;28;20429;-82
2022/05/30 04:39:32;;;;;;;20.53;19.37;;;;;;;;;;5094189;28;20416;-82
2022/05/30 04:42:00;;;;;;;21.10;19.90;;;;;;;;;;5094267;28;20436;-82
2022/05/30 04:44:27;;;;;;;21.03;19.73;;;;;;;;;;5094514;28;20441;-82
2022/05/30 04:46:55;;;;;;;21.37;20.27;;;;;;;;;;5094042;28;20760;-83
2022/05/30 04:49:22;;;;;;;23.10;21.60;;;;;;;;;;5094095;28;20429;-82
2022/05/30 04:51:51;;;;;;;21.80;20.33;;;;;;;;;;5093809;28;20444;-81
2022/05/30 04:54:19;;;;;;;22.37;20.73;;;;;;;;;;5093733;28;20783;-81
2022/05/30 04:56:47;;;;;;;22.53;20.67;;;;;;;;;;5093719;28;20477;-80
2022/05/30 04:59:15;;;;;;;21.67;20.00;;;;;;;;;;5093567;28;20449;-81
2022/05/30 05:01:42;;;;;;;20.80;19.30;;;;;;;;;;5093917;28;20440;-80
2022/05/30 05:04:11;;;;;;;20.97;19.77;;;;;;;;;;5093838;28;20430;-81
2022/05/30 05:06:39;;;;;;;20.90;19.80;;;;;;;;;;5093206;28;20483;-81
2022/05/30 05:09:21;;;;;;;22.30;20.60;;;;;;;;;;5092932;28;20419;-81
2022/05/30 05:11:49;;;;;;;21.20;19.90;;;;;;;;;;5093303;28;20461;-82
2022/05/30 05:14:16;;;;;;;21.57;20.00;;;;;;;;;;5093026;28;20466;-81
2022/05/30 05:16:44;;;;;;;20.50;19.20;;;;;;;;;;5093177;28;20560;-81
2022/05/30 05:19:11;;;;;;;21.37;19.77;;;;;;;;;;5092640;28;20492;-82
2022/05/30 05:21:39;;;;;;;21.73;20.43;;;;;;;;;;5092983;28;20457;-81
2022/05/30 05:24:09;;;;;;;22.57;21.17;;;;;;;;;;5093203;28;20400;-82
2022/05/30 05:26:37;;;;;;;21.07;19.70;;;;;;;;;;5093147;28;20396;-82
2022/05/30 05:29:04;;;;;;;22.87;21.37;;;;;;;;;;5093339;28;20405;-82
2022/05/30 05:31:35;;;;;;;22.63;21.33;;;;;;;;;;5101107;28;20435;-81
2022/05/30 05:34:07;;;;;;;22.10;20.80;;;;;;;;;;5104681;28;20400;-82
2022/05/30 05:36:36;;;;;;;22.00;20.80;;;;;;;;;;5105650;28;20452;-81
2022/05/30 05:39:05;;;;;;;23.30;21.40;;;;;;;;;;5104708;28;20488;-83
2022/05/30 05:41:36;;;;;;;23.13;21.63;;;;;;;;;;5104590;28;20408;-79
2022/05/30 05:44:05;;;;;;;22.60;20.70;;;;;;;;;;5104755;28;20451;-79
2022/05/30 05:46:36;;;;;;;22.70;21.00;;;;;;;;;;5105252;28;20521;-80
2022/05/30 05:49:06;;;;;;;22.50;21.17;;;;;;;;;;5106237;28;20428;-82
2022/05/30 05:51:34;;;;;;;23.20;21.70;;;;;;;;;;5104663;28;20424;-81
2022/05/30 05:54:02;;;;;;;23.30;21.70;;;;;;;;;;5101934;28;20435;-80
2022/05/30 05:56:32;;;;;;;23.47;21.67;;;;;;;;;;5101836;28;20584;-80
2022/05/30 05:59:02;;;;;;;22.70;21.40;;;;;;;;;;5083963;28;20431;-80
2022/05/30 06:01:31;;;;;;;23.00;21.50;;;;;;;;;;5103669;28;20420;-82
2022/05/30 06:03:59;;;;;;;22.93;21.53;;;;;;;;;;5100263;28;20487;-82
2022/05/30 06:06:27;;;;;;;23.53;21.73;;;;;;;;;;5093457;28;20400;-83
2022/05/30 06:08:56;;;;;;;22.67;20.93;;;;;;;;;;5092982;28;20430;-81
2022/05/30 06:11:24;;;;;;;21.50;20.10;;;;;;;;;;5092934;28;20434;-82
2022/05/30 06:13:52;;;;;;;23.67;22.20;;;;;;;;;;5092744;28;20428;-81
2022/05/30 06:16:22;;;;;;;21.83;20.53;;;;;;;;;;5093139;28;20563;-82
2022/05/30 06:18:50;;;;;;;23.60;21.90;;;;;;;;;;5092552;28;20514;-81
2022/05/30 06:21:17;;;;;;;23.70;21.50;;;;;;;;;;5092769;28;20451;-82
2022/05/30 06:23:46;;;;;;;22.60;21.20;;;;;;;;;;5093005;28;20437;-82
2022/05/30 06:26:14;;;;;;;22.80;21.17;;;;;;;;;;5094321;28;20419;-83
2022/05/30 06:28:42;;;;;;;21.67;20.27;;;;;;;;;;5093868;28;20419;-82
2022/05/30 06:31:09;;;;;;;21.70;20.40;;;;;;;;;;5093083;28;20406;-82
2022/05/30 06:33:39;;;;;;;22.57;21.27;;;;;;;;;;5092775;28;20419;-83
2022/05/30 06:36:07;;;;;;;23.63;21.93;;;;;;;;;;5092703;28;20501;-83
2022/05/30 06:38:34;;;;;;;23.27;21.20;;;;;;;;;;5092481;28;20412;-83
2022/05/30 06:41:09;;;;;;;22.37;21.00;;;;;;;;;;5092589;28;20413;-85
2022/05/30 06:43:37;;;;;;;23.77;21.90;;;;;;;;;;5092867;28;20425;-83
2022/05/30 06:46:04;;;;;;;23.20;21.70;;;;;;;;;;5092700;28;20755;-83
2022/05/30 06:48:32;;;;;;;22.60;21.13;;;;;;;;;;5092827;28;20495;-83
2022/05/30 06:51:02;;;;;;;22.37;20.97;;;;;;;;;;5092744;28;20412;-84
2022/05/30 06:53:30;;;;;;;22.70;21.33;;;;;;;;;;5093240;28;20419;-84
2022/05/30 06:55:57;;;;;;;22.60;20.80;;;;;;;;;;5092927;28;20452;-84
2022/05/30 06:58:25;;;;;;;22.67;20.67;;;;;;;;;;5092854;28;20437;-84
2022/05/30 07:00:53;;;;;;;21.50;20.10;;;;;;;;;;5092845;28;20413;-84
2022/05/30 07:03:20;;;;;;;22.13;20.73;;;;;;;;;;5092629;28;20435;-83
2022/05/30 07:05:48;;;;;;;22.33;20.93;;;;;;;;;;5092726;28;20436;-83
2022/05/30 07:08:17;;;;;;;21.40;20.13;;;;;;;;;;5092748;28;20444;-82
2022/05/30 07:10:45;;;;;;;21.07;19.70;;;;;;;;;;5092371;28;20428;-84
2022/05/30 07:13:13;;;;;;;23.13;21.43;;;;;;;;;;5093282;28;20408;-84
2022/05/30 07:15:40;;;;;;;21.77;20.43;;;;;;;;;;5093074;28;20457;-95
2022/05/30 07:18:09;;;;;;;20.53;19.13;;;;;;;;;;5068000;28;20422;-92
2022/05/30 07:20:36;;;;;;;21.60;20.50;;;;;;;;;;5056928;28;20470;-94
2022/05/30 07:23:04;;;;;;;21.57;20.27;;;;;;;;;;5055813;28;20432;-83
2022/05/30 07:25:36;;;;;;;21.77;20.23;;;;;;;;;;5055641;28;20445;-84
2022/05/30 07:28:03;;;;;;;22.07;20.40;;;;;;;;;;5055782;28;20445;-84
2022/05/30 07:30:31;;;;;;;21.73;20.23;;;;;;;;;;5055867;28;20418;-85
2022/05/30 07:32:58;;;;;;;21.00;19.80;;;;;;;;;;5038825;28;20426;-86
2022/05/30 07:35:26;;;;;;;20.93;19.63;;;;;;;;;;5056333;28;20429;-86
2022/05/30 07:37:53;;;;;;;21.70;19.83;;;;;;;;;;5056665;28;20416;-85
2022/05/30 07:40:21;;;;;;;20.57;19.30;;;;;;;;;;5055768;28;20421;-84
2022/05/30 07:42:49;;;;;;;21.10;19.90;;;;;;;;;;5055647;28;20458;-86
2022/05/30 07:45:17;;;;;;;20.30;19.10;;;;;;;;;;5056109;28;20425;-87
2022/05/30 07:47:44;;;;;;;21.30;20.00;;;;;;;;;;5056043;28;20423;-86
2022/05/30 07:50:12;;;;;;;21.20;19.90;;;;;;;;;;5056189;28;20438;-83
2022/05/30 07:52:39;;;;;;;21.47;20.27;;;;;;;;;;5055747;28;20439;-85
2022/05/30 07:55:07;;;;;;;21.73;20.27;;;;;;;;;;5056017;28;20443;-85
2022/05/30 07:57:53;;;;;;;21.70;20.20;;;;;;;;;;5055728;28;20510;-86
2022/05/30 08:00:23;;;;;;;20.67;19.37;;;;;;;;;;5056032;28;20432;-86
2022/05/30 08:02:51;;;;;;;20.27;19.07;;;;;;;;;;5055923;28;20816;-86
2022/05/30 08:05:19;;;;;;;21.87;20.67;;;;;;;;;;5056135;28;20455;-85
2022/05/30 08:07:47;;;;;;;21.33;20.20;;;;;;;;;;5057426;28;20877;-85
2022/05/30 08:10:16;;;;;;;21.63;20.37;;;;;;;;;;5055996;28;20887;-85
2022/05/30 08:12:43;;;;;;;21.53;20.20;;;;;;;;;;5056122;28;20492;-85
2022/05/30 08:15:11;;;;;;;21.00;19.70;;;;;;;;;;5055744;28;20417;-86
2022/05/30 08:17:40;;;;;;;21.23;19.93;;;;;;;;;;5055655;28;20465;-86
2022/05/30 08:20:08;;;;;;;21.70;20.27;;;;;;;;;;5068128;28;20866;-86
2022/05/30 08:22:36;;;;;;;20.90;19.80;;;;;;;;;;5076611;28;20430;-86
2022/05/30 08:25:04;;;;;;;21.57;19.63;;;;;;;;;;5075559;28;20417;-85
2022/05/30 08:27:32;;;;;;;22.07;20.57;;;;;;;;;;5077793;28;20556;-86
2022/05/30 08:29:59;;;;;;;21.93;20.63;;;;;;;;;;5080801;28;20449;-86
2022/05/30 08:32:32;;;;;;;20.67;19.47;;;;;;;;;;5079530;28;20470;-86
2022/05/30 08:35:03;;;;;;;21.40;19.70;;;;;;;;;;5077395;28;20431;-86
2022/05/30 08:37:31;;;;;;;20.33;19.10;;;;;;;;;;5074819;28;20448;-86
2022/05/30 08:42:44;;;;;;;21.30;20.00;;;;;;;;;;5075048;28;20401;-85
2022/05/30 08:45:14;;;;;;;21.50;20.30;;;;;;;;;;5075146;28;20421;-86
2022/05/30 08:47:52;;;;;;;21.73;20.50;;;;;;;;;;5074984;28;20438;-85
2022/05/30 08:50:34;;;;;;;22.03;20.60;;;;;;;;;;5074606;28;20439;-85
2022/05/30 08:53:12;;;;;;;22.27;20.77;;;;;;;;;;5074411;28;21041;-85
2022/05/30 08:55:44;;;;;;;21.80;20.60;;;;;;;;;;5074502;28;20445;-85
2022/05/30 08:58:16;;;;;;;21.97;20.77;;;;;;;;;;5074490;28;20524;-86
2022/05/30 09:00:46;;;;;;;22.13;20.73;;;;;;;;;;5074578;28;20450;-85
2022/05/30 09:03:16;;;;;;;21.87;20.47;;;;;;;;;;5074493;28;20420;-85
2022/05/30 09:05:48;;;;;;;21.60;20.37;;;;;;;;;;5074220;28;20428;-85
2022/05/30 09:08:21;;;;;;;22.30;20.80;;;;;;;;;;5074700;28;20863;-85
2022/05/30 09:10:51;;;;;;;21.70;20.50;;;;;;;;;;5074508;28;20421;-86
2022/05/30 09:13:20;;;;;;;21.10;19.90;;;;;;;;;;5074446;28;20437;-85
2022/05/30 09:15:51;;;;;;;20.97;19.60;;;;;;;;;;5074392;28;20413;-85
2022/05/30 09:18:21;;;;;;;20.80;19.30;;;;;;;;;;5074883;28;20764;-85
2022/05/30 09:20:49;;;;;;;22.00;20.37;;;;;;;;;;5073937;28;20482;-86
2022/05/30 09:23:18;;;;;;;22.00;20.70;;;;;;;;;;5074979;28;20405;-86
2022/05/30 09:25:56;;;;;;;22.10;20.70;;;;;;;;;;5074676;28;20417;-84
2022/05/30 09:28:24;;;;;;;22.20;20.80;;;;;;;;;;5074077;28;20466;-85
2022/05/30 09:30:56;;;;;;;21.83;20.37;;;;;;;;;;5074118;28;20468;-84
2022/05/30 09:33:30;;;;;;;21.73;20.43;;;;;;;;;;5073594;28;20958;-85
2022/05/30 09:36:13;;;;;;;22.07;20.50;;;;;;;;;;5073398;28;20412;-85
2022/05/30 09:38:45;;;;;;;21.30;20.03;;;;;;;;;;5074086;28;20401;-86
2022/05/30 09:41:14;;;;;;;21.40;20.13;;;;;;;;;;5056426;28;20421;-85
2022/05/30 09:43:45;;;;;;;20.40;19.20;;;;;;;;;;5074052;28;20467;-86
2022/05/30 09:46:21;;;;;;;21.00;19.80;;;;;;;;;;5074062;28;20441;-85
2022/05/30 09:49:15;;;;;;;21.07;19.77;;;;;;;;;;5073841;28;20409;-85
2022/05/30 09:51:45;;;;;;;21.07;19.90;;;;;;;;;;4992545;28;20904;-86
2022/05/30 09:54:13;;;;;;;20.70;19.50;;;;;;;;;;4976194;28;20424;-84
2022/05/30 09:56:43;;;;;;;21.60;20.10;;;;;;;;;;4992225;28;21009;-86
2022/05/30 09:59:14;;;;;;;21.37;19.97;;;;;;;;;;4992333;28;20817;-85
2022/05/30 10:01:42;;;;;;;21.63;20.30;;;;;;;;;;4992238;28;20425;-85
2022/05/30 10:04:18;;;;;;;21.43;20.20;;;;;;;;;;4992146;28;20515;-85
2022/05/30 10:07:01;;;;;;;21.90;20.70;;;;;;;;;;4992077;28;20505;-85
2022/05/30 10:09:29;;;;;;;21.90;20.50;;;;;;;;;;4992268;28;20413;-86
2022/05/30 10:11:58;;;;;;;21.40;20.20;;;;;;;;;;4992301;28;20858;-85
2022/05/30 10:14:26;;;;;;;21.10;19.83;;;;;;;;;;4992698;28;20442;-85
2022/05/30 10:16:55;;;;;;;21.87;20.47;;;;;;;;;;4995051;28;20456;-85
2022/05/30 10:19:25;;;;;;;22.27;20.67;;;;;;;;;;4992197;28;20461;-86
2022/05/30 10:30:25;;;;;;;21.60;20.10;;;;;;;;;;5073358;28;20430;-84
2022/05/30 10:32:58;;;;;;;21.23;20.03;;;;;;;;;;5072970;28;20422;-85
2022/05/30 10:35:29;;;;;;;21.73;20.33;;;;;;;;;;5073763;28;20453;-84
2022/05/30 10:38:14;;;;;;;22.17;20.87;;;;;;;;;;5074413;28;20497;-85
2022/05/30 10:40:50;;;;;;;23.30;21.60;;;;;;;;;;5072695;28;20462;-85
2022/05/30 10:43:20;;;;;;;22.17;20.63;;;;;;;;;;5073225;28;20442;-85
2022/05/30 10:45:49;;;;;;;21.83;20.63;;;;;;;;;;5073399;28;20434;-85
2022/05/30 10:48:25;;;;;;;22.60;21.10;;;;;;;;;;5057675;28;20476;-86
2022/05/30 10:51:00;;;;;;;22.27;21.03;;;;;;;;;;5076935;28;20897;-86
2022/05/30 10:53:31;;;;;;;21.23;20.13;;;;;;;;;;5077206;28;20405;-86
2022/05/30 10:56:01;;;;;;;21.73;20.43;;;;;;;;;;5059669;28;20503;-86
2022/05/30 10:58:31;;;;;;;22.63;21.33;;;;;;;;;;5076753;28;20456;-85
2022/05/30 11:01:00;;;;;;;21.83;20.43;;;;;;;;;;5076633;28;20902;-85
2022/05/30 11:03:31;;;;;;;22.37;21.10;;;;;;;;;;5076741;28;20908;-85
2022/05/30 11:06:03;;;;;;;21.73;20.43;;;;;;;;;;5077096;28;20437;-86
2022/05/30 11:08:34;;;;;;;21.90;20.47;;;;;;;;;;5076814;28;20442;-86
2022/05/30 11:11:04;;;;;;;21.67;20.20;;;;;;;;;;5076878;28;20412;-84
2022/05/30 11:13:35;;;;;;;21.47;20.13;;;;;;;;;;5076559;28;20445;-85
2022/05/30 11:16:04;;;;;;;21.17;19.90;;;;;;;;;;5076704;28;20413;-86
2022/05/30 11:18:36;;;;;;;21.00;19.70;;;;;;;;;;5077008;28;20468;-86
2022/05/30 11:21:05;;;;;;;21.93;20.50;;;;;;;;;;5077176;28;20471;-86
2022/05/30 11:23:33;;;;;;;20.73;19.50;;;;;;;;;;5077078;28;20420;-85
2022/05/30 11:26:08;;;;;;;21.53;20.27;;;;;;;;;;5077857;28;20425;-86
2022/05/30 11:28:41;;;;;;;20.90;19.80;;;;;;;;;;5076586;28;20438;-85
2022/05/30 11:31:14;;;;;;;22.47;21.27;;;;;;;;;;5076099;28;20443;-85
2022/05/30 11:33:59;;;;;;;21.57;20.40;;;;;;;;;;5076247;28;20450;-85
2022/05/30 11:36:41;;;;;;;21.40;20.20;;;;;;;;;;5075808;28;20491;-85
2022/05/30 11:39:13;;;;;;;21.27;20.07;;;;;;;;;;5058978;28;20477;-86
2022/05/30 11:41:52;;;;;;;21.50;20.30;;;;;;;;;;5075691;28;20905;-86
2022/05/30 11:44:34;;;;;;;21.50;20.10;;;;;;;;;;5058005;28;20439;-85
2022/05/30 11:47:07;;;;;;;21.90;20.70;;;;;;;;;;5075669;28;20447;-86
2022/05/30 11:49:37;;;;;;;21.67;20.37;;;;;;;;;;5075923;28;20856;-85
2022/05/30 11:52:13;;;;;;;22.17;20.87;;;;;;;;;;5075981;28;20406;-86
2022/05/30 11:54:48;;;;;;;21.33;20.10;;;;;;;;;;5075559;28;20440;-85
2022/05/30 11:57:23;;;;;;;21.30;20.00;;;;;;;;;;5075865;28;20456;-85
2022/05/30 11:59:57;;;;;;;21.63;20.43;;;;;;;;;;5074759;28;20423;-86
2022/05/30 12:02:27;;;;;;;21.37;20.17;;;;;;;;;;5075286;28;20437;-86
2022/05/30 12:05:05;;;;;;;21.63;20.33;;;;;;;;;;5075287;28;20938;-85
2022/05/30 12:07:56;;;;;;;21.83;20.53;;;;;;;;;;5075236;28;20438;-85
2022/05/30 12:10:30;;;;;;;22.20;20.87;;;;;;;;;;5074907;28;20460;-85
2022/05/30 12:13:04;;;;;;;21.73;20.40;;;;;;;;;;5075467;28;20930;-85
2022/05/30 12:15:49;;;;;;;21.17;19.87;;;;;;;;;;5074937;28;20450;-85
2022/05/30 12:24:22;;;;;;;21.33;20.03;;;;;;;;;;5014754;28;20443;-86
2022/05/30 12:26:57;;;;;;;21.03;19.73;;;;;;;;;;5054936;28;20475;-86
2022/05/30 12:29:39;;;;;;;20.90;19.60;;;;;;;;;;5055020;28;20877;-86
2022/05/30 12:32:16;;;;;;;21.30;20.10;;;;;;;;;;5052005;28;20511;-85
2022/05/30 12:35:05;;;;;;;21.20;19.90;;;;;;;;;;5055256;28;20418;-85
2022/05/30 12:37:45;;;;;;;22.63;21.07;;;;;;;;;;5055256;28;20901;-85
2022/05/30 12:40:14;;;;;;;22.27;20.87;;;;;;;;;;5055015;28;20443;-84
2022/05/30 12:42:44;;;;;;;21.43;20.23;;;;;;;;;;5054844;28;20417;-85
2022/05/30 12:45:19;;;;;;;21.23;19.93;;;;;;;;;;5055028;28;20452;-85
2022/05/30 12:47:52;;;;;;;21.00;19.70;;;;;;;;;;5054779;28;20433;-85
2022/05/30 12:50:50;;;;;;;22.27;20.97;;;;;;;;;;5054701;28;20401;-85
2022/05/30 12:53:18;;;;;;;21.33;20.13;;;;;;;;;;5055347;28;20417;-85
2022/05/30 12:55:46;;;;;;;22.53;21.20;;;;;;;;;;5055063;28;20409;-86
2022/05/30 12:58:15;;;;;;;21.67;20.47;;;;;;;;;;5054486;28;20789;-84
2022/05/30 13:00:51;;;;;;;21.70;20.40;;;;;;;;;;5054705;28;20440;-85
2022/05/30 13:03:33;;;;;;;21.87;20.67;;;;;;;;;;5054855;28;20438;-86
2022/05/30 13:06:05;;;;;;;21.73;20.53;;;;;;;;;;5054605;28;20439;-86
2022/05/30 13:08:56;;;;;;;21.83;20.57;;;;;;;;;;5054300;28;20497;-86
2022/05/30 13:11:33;;;;;;;22.00;20.60;;;;;;;;;;5054503;28;20432;-85
2022/05/30 13:14:05;;;;;;;22.63;21.33;;;;;;;;;;5054509;28;20446;-85
2022/05/30 13:16:38;;;;;;;21.97;20.67;;;;;;;;;;5054277;28;20410;-86
2022/05/30 13:19:06;;;;;;;22.50;21.10;;;;;;;;;;5055583;28;21066;-85
2022/05/30 13:21:35;;;;;;;22.27;20.67;;;;;;;;;;5074018;28;20435;-86
2022/05/30 13:24:02;;;;;;;21.70;20.50;;;;;;;;;;5074094;28;20428;-85
2022/05/30 13:26:33;;;;;;;21.93;20.43;;;;;;;;;;5074122;28;20443;-86
2022/05/30 13:29:02;;;;;;;22.83;21.53;;;;;;;;;;5073917;28;20418;-86
2022/05/30 13:31:30;;;;;;;21.53;20.33;;;;;;;;;;5074444;28;20422;-85
2022/05/30 13:33:58;;;;;;;21.40;20.20;;;;;;;;;;5056109;28;20454;-85
2022/05/30 13:36:29;;;;;;;22.23;20.93;;;;;;;;;;5073974;28;20416;-85
2022/05/30 13:38:58;;;;;;;22.27;20.97;;;;;;;;;;5073891;28;20463;-85
2022/05/30 13:41:28;;;;;;;22.03;20.70;;;;;;;;;;5073724;28;20417;-86
2022/05/30 13:43:57;;;;;;;22.20;20.90;;;;;;;;;;5073719;28;20409;-85
2022/05/30 13:46:25;;;;;;;22.30;20.90;;;;;;;;;;5073237;28;20456;-86
2022/05/30 13:48:53;;;;;;;22.77;21.07;;;;;;;;;;5073624;28;20409;-86
2022/05/30 13:51:23;;;;;;;21.47;20.23;;;;;;;;;;5073808;28;20452;-85
2022/05/30 13:53:52;;;;;;;20.70;19.60;;;;;;;;;;5074153;28;20409;-84
2022/05/30 13:56:24;;;;;;;22.27;20.97;;;;;;;;;;5073900;28;20413;-86
2022/05/30 13:58:52;;;;;;;22.40;21.10;;;;;;;;;;5073607;28;20482;-85
2022/05/30 14:01:21;;;;;;;21.73;20.33;;;;;;;;;;5073379;28;20438;-86
2022/05/30 14:03:52;;;;;;;21.40;20.10;;;;;;;;;;5073549;28;20438;-85
2022/05/30 14:06:21;;;;;;;22.63;21.23;;;;;;;;;;5073796;28;20434;-86
2022/05/30 14:08:48;;;;;;;22.37;21.00;;;;;;;;;;5073675;28;20459;-86
2022/05/30 14:11:16;;;;;;;22.63;21.37;;;;;;;;;;5073646;28;20455;-85
2022/05/30 14:13:54;;;;;;;21.83;20.40;;;;;;;;;;5073487;28;20416;-85
2022/05/30 14:16:45;;;;;;;21.80;20.50;;;;;;;;;;5073585;28;20553;-84
2022/05/30 14:19:14;;;;;;;21.93;20.63;;;;;;;;;;5048967;28;20499;-86
2022/05/30 14:21:43;;;;;;;21.10;19.90;;;;;;;;;;5073499;28;20424;-85
2022/05/30 14:24:22;;;;;;;21.30;20.00;;;;;;;;;;5077200;28;20434;-85
2022/05/30 14:26:50;;;;;;;22.20;20.90;;;;;;;;;;5077640;28;20430;-85
2022/05/30 14:29:24;;;;;;;21.87;20.47;;;;;;;;;;5077291;28;20410;-85
2022/05/30 14:32:02;;;;;;;22.23;20.77;;;;;;;;;;5077097;28;20413;-86
2022/05/30 14:34:35;;;;;;;22.57;21.07;;;;;;;;;;5077123;28;20413;-85
2022/05/30 14:37:02;;;;;;;22.80;21.43;;;;;;;;;;5077395;28;20458;-85
2022/05/30 14:39:31;;;;;;;23.00;21.60;;;;;;;;;;5076991;28;20513;-86
2022/05/30 14:41:59;;;;;;;22.73;21.23;;;;;;;;;;5076998;28;20912;-85
2022/05/30 14:44:36;;;;;;;22.90;21.50;;;;;;;;;;5059051;28;20458;-86
2022/05/30 14:47:07;;;;;;;22.50;21.20;;;;;;;;;;5077222;28;20439;-85
2022/05/30 14:49:35;;;;;;;23.30;21.80;;;;;;;;;;5076955;28;20450;-86
2022/05/30 14:52:04;;;;;;;21.93;20.53;;;;;;;;;;5076930;28;20927;-86
2022/05/30 14:54:33;;;;;;;23.30;21.70;;;;;;;;;;5076851;28;20471;-85
2022/05/30 14:57:02;;;;;;;21.80;20.50;;;;;;;;;;5076817;28;20408;-85
2022/05/30 14:59:33;;;;;;;22.70;21.30;;;;;;;;;;5076819;28;20480;-85